Pays
Station

 

Conditions  météo  pour  Gallivare  -  Suède    Suède

  
8 °C
    
 
 

METAR pour Gallivare :

ESNG 232120Z AUTO 27010KT 9999 NCD 08/M01 Q1019

 

Voici le bulletin pour Gallivare - Suède.
 
Le bulletin a été fait il y a 41 minutes, à 21:20 UTC .
Le vent soufflait à la vitesse de 5.1 mètres par seconde de Ouest (270°).
 
La température était de 8 °C, avec un point de rosée à -1 °C.
La pression atmosphérique était de 1019 hPa.
L'humidité relative était de 52.9%.
 
La visibilité globale était de supérieure à 10 kilomètres.
 

 
 
 

Pays :   A   B   C   D   E   F   G   H   I   J   K   L   M   N   O   P   Q   R   S   T   U   V   W   Y   Z

 

Partenaires :  Info Météo avec Met'info
Météo Marine avec MeteoMarine.net
Infos Site  |  Infos Légales  |  Crédits  |  Confidentialité
Contactez-nous  |  Ajouter aux favoris
© 2013-2019 METAR - Tous droits réservés